Time;durP1;ratioP1;P1;durP2;ratioP2;P2;SDS_P1;SDS_P2;PMS_P1;PMS_P2;Temp;Humidity;BMP_temperature;BMP_pressure;BME280_temperature;BME280_humidity;BME280_pressure;Samples;Min_cycle;Max_cycle;Signal;HPM_P1;HPM_P2
2023/04/21 00:01:07;;;;;;;7.95;5.18;;;12.60;99.90;;;;;;5116904;28;20020;-70
2023/04/21 00:03:36;;;;;;;6.95;5.20;;;12.50;99.90;;;;;;5117193;28;20360;-70
2023/04/21 00:06:02;;;;;;;6.40;5.03;;;12.50;99.90;;;;;;5117010;28;20085;-69
2023/04/21 00:08:28;;;;;;;8.00;5.07;;;12.50;99.90;;;;;;5117227;28;20078;-72
2023/04/21 00:10:53;;;;;;;6.93;5.35;;;12.50;99.90;;;;;;5116683;28;20030;-70
2023/04/21 00:13:19;;;;;;;9.57;6.22;;;12.50;99.90;;;;;;5098966;28;20024;-69
2023/04/21 00:15:44;;;;;;;6.63;5.45;;;12.40;99.90;;;;;;5117052;28;20042;-70
2023/04/21 00:18:12;;;;;;;9.70;5.40;;;12.40;99.90;;;;;;5117197;28;20031;-69
2023/04/21 00:20:38;;;;;;;11.75;5.20;;;12.30;99.90;;;;;;5120086;28;20067;-69
2023/04/21 00:23:03;;;;;;;6.47;4.85;;;12.20;99.90;;;;;;5102710;28;20028;-69
2023/04/21 00:25:29;;;;;;;9.13;5.15;;;12.20;99.90;;;;;;5120594;28;20020;-70
2023/04/21 00:27:55;;;;;;;6.40;5.03;;;12.10;99.90;;;;;;5120918;28;20544;-70
2023/04/21 00:30:21;;;;;;;8.57;5.40;;;12.20;99.90;;;;;;5120644;28;20024;-70
2023/04/21 00:32:46;;;;;;;9.73;5.60;;;12.30;99.90;;;;;;5120783;28;20091;-70
2023/04/21 00:35:12;;;;;;;10.95;5.97;;;12.30;99.90;;;;;;5120452;28;20016;-69
2023/04/21 00:37:39;;;;;;;12.18;5.35;;;12.40;99.90;;;;;;5113162;28;20059;-69
2023/04/21 00:40:05;;;;;;;8.80;5.25;;;12.40;99.90;;;;;;5099217;28;20031;-70
2023/04/21 00:42:31;;;;;;;8.55;4.97;;;12.40;99.90;;;;;;5120604;28;20059;-70
2023/04/21 00:44:56;;;;;;;7.57;5.30;;;12.50;99.90;;;;;;5120358;28;20077;-70
2023/04/21 00:47:22;;;;;;;8.15;5.13;;;12.60;99.90;;;;;;5120573;28;20023;-70
2023/04/21 00:49:48;;;;;;;8.38;5.63;;;12.60;99.90;;;;;;5120140;28;20030;-70
2023/04/21 00:52:17;;;;;;;8.43;6.15;;;12.60;99.90;;;;;;5120516;28;20024;-70
2023/04/21 00:54:43;;;;;;;11.60;6.13;;;12.50;99.90;;;;;;5119835;28;20096;-69
2023/04/21 00:57:12;;;;;;;9.55;5.30;;;12.50;99.90;;;;;;5120439;28;20024;-70
2023/04/21 00:59:38;;;;;;;8.98;5.97;;;12.50;99.90;;;;;;5101722;28;20499;-70
2023/04/21 01:02:03;;;;;;;11.70;5.72;;;12.50;99.90;;;;;;5102018;28;20031;-70
2023/04/21 01:04:35;;;;;;;8.38;5.70;;;12.50;99.90;;;;;;5119801;28;20013;-70
2023/04/21 01:07:02;;;;;;;13.10;5.60;;;12.50;99.90;;;;;;5120266;28;20020;-70
2023/04/21 01:09:28;;;;;;;6.05;5.13;;;12.50;99.90;;;;;;5119633;28;20016;-70
2023/04/21 01:12:04;;;;;;;11.70;6.18;;;12.40;99.90;;;;;;5120279;28;20031;-70
2023/04/21 01:14:30;;;;;;;7.80;5.65;;;12.30;99.90;;;;;;5119756;28;20020;-70
2023/04/21 01:16:56;;;;;;;11.13;6.47;;;12.30;99.90;;;;;;5119975;28;20035;-70
2023/04/21 01:19:23;;;;;;;8.50;5.40;;;12.30;99.90;;;;;;5119466;28;20093;-70
2023/04/21 01:21:52;;;;;;;11.88;6.38;;;12.20;99.90;;;;;;5101493;28;20048;-70
2023/04/21 01:24:18;;;;;;;7.22;5.72;;;12.20;99.90;;;;;;5119541;28;20037;-70
2023/04/21 01:26:48;;;;;;;10.85;6.22;;;12.10;99.90;;;;;;5119488;28;20024;-70
2023/04/21 01:29:14;;;;;;;11.02;6.53;;;12.10;99.90;;;;;;5119821;28;20027;-70
2023/04/21 01:31:40;;;;;;;8.98;6.45;;;12.10;99.90;;;;;;5100758;28;20053;-70
2023/04/21 01:34:06;;;;;;;9.50;6.47;;;12.10;99.90;;;;;;5119361;28;20015;-70
2023/04/21 01:36:32;;;;;;;13.23;6.85;;;12.10;99.90;;;;;;5119482;28;20076;-70
2023/04/21 01:38:58;;;;;;;8.98;6.47;;;12.10;99.90;;;;;;5100748;28;20391;-70
2023/04/21 01:41:24;;;;;;;12.20;6.68;;;12.00;99.90;;;;;;5119496;28;20118;-70
2023/04/21 01:43:49;;;;;;;10.13;6.38;;;12.10;99.90;;;;;;5119171;28;20028;-70
2023/04/21 01:46:18;;;;;;;10.55;7.30;;;12.00;99.90;;;;;;5119353;28;20024;-70
2023/04/21 01:48:44;;;;;;;11.98;7.10;;;12.00;99.90;;;;;;5118963;28;20026;-70
2023/04/21 01:51:10;;;;;;;11.63;7.03;;;12.00;99.90;;;;;;5119240;28;20027;-70
2023/04/21 01:53:35;;;;;;;8.48;7.20;;;11.90;99.90;;;;;;5100933;28;20024;-70
2023/04/21 01:56:01;;;;;;;8.68;7.65;;;11.90;99.90;;;;;;5119008;28;20024;-70
2023/04/21 01:58:27;;;;;;;9.85;6.57;;;11.90;99.90;;;;;;5119142;28;20027;-70
2023/04/21 02:00:52;;;;;;;11.38;7.90;;;11.90;99.90;;;;;;5100750;28;20111;-70
2023/04/21 02:03:18;;;;;;;11.98;7.90;;;11.90;99.90;;;;;;5118725;28;20019;-70
2023/04/21 02:05:44;;;;;;;13.73;8.50;;;11.90;99.90;;;;;;5118956;28;20016;-70
2023/04/21 02:08:09;;;;;;;17.08;8.18;;;11.80;99.90;;;;;;5118668;28;20081;-70
2023/04/21 02:10:35;;;;;;;16.42;9.07;;;11.80;99.90;;;;;;5118463;28;20031;-70
2023/04/21 02:13:01;;;;;;;11.25;8.98;;;11.80;99.90;;;;;;5118504;28;20507;-70
2023/04/21 02:15:26;;;;;;;15.52;9.30;;;11.80;99.90;;;;;;5118721;28;20028;-71
2023/04/21 02:17:52;;;;;;;12.43;9.68;;;11.80;99.90;;;;;;5118705;28;20601;-71
2023/04/21 02:20:18;;;;;;;11.68;9.13;;;11.80;99.90;;;;;;5118432;28;20095;-70
2023/04/21 02:22:44;;;;;;;13.50;9.38;;;11.70;99.90;;;;;;5118450;28;20023;-71
2023/04/21 02:25:09;;;;;;;11.60;8.23;;;11.70;99.90;;;;;;5118431;28;20019;-70
2023/04/21 02:27:35;;;;;;;18.73;9.60;;;11.60;99.90;;;;;;5118230;28;20065;-71
2023/04/21 02:30:01;;;;;;;14.23;9.02;;;11.60;99.90;;;;;;5118439;28;20026;-70
2023/04/21 02:32:27;;;;;;;12.63;8.82;;;11.60;99.90;;;;;;5100006;28;20388;-70
2023/04/21 02:34:53;;;;;;;11.27;9.40;;;11.60;99.90;;;;;;5099878;28;20055;-70
2023/04/21 02:37:19;;;;;;;13.77;9.02;;;11.60;99.90;;;;;;5118245;28;20514;-70
2023/04/21 02:39:44;;;;;;;11.13;8.70;;;11.60;99.90;;;;;;5099721;28;20189;-70
2023/04/21 02:42:10;;;;;;;11.85;8.82;;;11.60;99.90;;;;;;5099064;28;20069;-70
2023/04/21 02:44:37;;;;;;;10.23;8.98;;;11.50;99.90;;;;;;5118219;28;20376;-70
2023/04/21 02:47:03;;;;;;;11.25;9.30;;;11.50;99.90;;;;;;5118058;28;20485;-70
2023/04/21 02:49:28;;;;;;;10.88;8.77;;;11.50;99.90;;;;;;5117956;28;20064;-70
2023/04/21 02:51:54;;;;;;;15.35;8.98;;;11.40;99.90;;;;;;5117911;28;20055;-70
2023/04/21 02:54:20;;;;;;;10.73;8.43;;;11.30;99.90;;;;;;5117696;28;20399;-70
2023/04/21 02:56:45;;;;;;;11.13;9.50;;;11.40;99.90;;;;;;5117543;28;20031;-70
2023/04/21 02:59:15;;;;;;;14.98;9.27;;;11.30;99.90;;;;;;5115297;28;20035;-70
2023/04/21 03:01:40;;;;;;;13.57;9.32;;;11.30;99.90;;;;;;5117400;28;20365;-70
2023/04/21 03:04:06;;;;;;;16.15;9.10;;;11.30;99.90;;;;;;5099452;28;20135;-70
2023/04/21 03:06:32;;;;;;;9.98;8.45;;;11.30;99.90;;;;;;5116594;28;20047;-70
2023/04/21 03:08:58;;;;;;;11.32;8.77;;;11.30;99.90;;;;;;5099123;28;20034;-71
2023/04/21 03:11:23;;;;;;;10.85;9.13;;;11.20;99.90;;;;;;5117707;28;20027;-71
2023/04/21 03:13:49;;;;;;;10.45;9.00;;;11.20;99.90;;;;;;5117824;28;20028;-70
2023/04/21 03:16:15;;;;;;;15.05;8.63;;;11.10;99.90;;;;;;5117697;28;20055;-70
2023/04/21 03:18:41;;;;;;;14.27;9.10;;;11.10;99.90;;;;;;5117469;28;20091;-71
2023/04/21 03:21:07;;;;;;;15.05;9.45;;;11.10;99.90;;;;;;5117330;28;20501;-70
2023/04/21 03:23:32;;;;;;;12.98;8.70;;;11.10;99.90;;;;;;5117745;28;20030;-70
2023/04/21 03:25:58;;;;;;;14.18;8.70;;;11.10;99.90;;;;;;5117239;28;20015;-70
2023/04/21 03:28:24;;;;;;;12.75;9.48;;;11.10;99.90;;;;;;5117343;28;20015;-70
2023/04/21 03:30:49;;;;;;;11.27;9.10;;;11.10;99.90;;;;;;5117389;28;20028;-71
2023/04/21 03:33:15;;;;;;;9.88;8.80;;;11.10;99.90;;;;;;5117349;28;20492;-70
2023/04/21 03:35:41;;;;;;;11.90;9.38;;;11.10;99.90;;;;;;5117411;28;20034;-70
2023/04/21 03:38:06;;;;;;;16.02;10.40;;;11.00;99.90;;;;;;5117650;28;20095;-70
2023/04/21 03:40:32;;;;;;;13.02;9.60;;;11.00;99.90;;;;;;5098851;28;20038;-71
2023/04/21 03:42:58;;;;;;;13.07;8.80;;;11.00;99.90;;;;;;5117546;28;20430;-71
2023/04/21 03:45:23;;;;;;;13.02;9.52;;;11.00;99.90;;;;;;5117183;28;20379;-71
2023/04/21 03:47:53;;;;;;;12.77;9.30;;;11.00;99.90;;;;;;5117450;28;20375;-71
2023/04/21 03:50:19;;;;;;;11.95;8.70;;;10.90;99.90;;;;;;5098794;28;20566;-71
2023/04/21 03:52:45;;;;;;;15.25;8.73;;;11.00;99.90;;;;;;5117485;28;20464;-71
2023/04/21 03:55:10;;;;;;;11.60;8.88;;;10.90;99.90;;;;;;5121150;28;20024;-70
2023/04/21 03:57:40;;;;;;;13.68;9.88;;;10.90;99.90;;;;;;5121268;28;20020;-71
2023/04/21 04:00:11;;;;;;;12.27;9.20;;;10.90;99.90;;;;;;5121299;28;20023;-70
2023/04/21 04:02:37;;;;;;;;;;;11.00;99.90;;;;;;5121886;28;20020;-71
2023/04/21 04:05:04;;;;;;;13.95;9.20;;;11.00;99.90;;;;;;5102733;28;20378;-71
2023/04/21 04:07:30;;;;;;;16.27;8.02;;;11.00;99.90;;;;;;5102873;28;20024;-71
2023/04/21 04:09:56;;;;;;;11.52;7.88;;;11.00;99.90;;;;;;5120948;28;20023;-70
2023/04/21 04:12:21;;;;;;;16.88;9.07;;;10.90;99.90;;;;;;5121101;28;20513;-71
2023/04/21 04:14:47;;;;;;;12.00;7.80;;;10.90;99.90;;;;;;5121199;28;20044;-70
2023/04/21 04:17:13;;;;;;;10.35;8.82;;;10.90;99.90;;;;;;5121086;28;20098;-71
2023/04/21 04:19:38;;;;;;;12.43;8.35;;;10.90;99.90;;;;;;5102230;28;20109;-70
2023/04/21 04:22:04;;;;;;;12.13;9.00;;;10.80;99.90;;;;;;5120877;28;20074;-70
2023/04/21 04:24:32;;;;;;;10.18;8.57;;;10.80;99.90;;;;;;5120697;28;20483;-70
2023/04/21 04:26:58;;;;;;;10.50;8.13;;;10.80;99.90;;;;;;5120726;28;20016;-70
2023/04/21 04:29:25;;;;;;;13.68;8.57;;;10.80;99.90;;;;;;5091478;28;20023;-71
2023/04/21 04:31:52;;;;;;;11.32;8.27;;;10.80;99.90;;;;;;5120558;28;20024;-70
2023/04/21 04:34:17;;;;;;;11.30;8.90;;;10.80;99.90;;;;;;5120796;28;20068;-70
2023/04/21 04:36:44;;;;;;;11.90;8.15;;;10.90;99.90;;;;;;5120424;28;20072;-70
2023/04/21 04:39:11;;;;;;;16.80;9.05;;;10.90;99.90;;;;;;5120548;28;20022;-70
2023/04/21 04:41:37;;;;;;;10.50;8.43;;;10.90;99.90;;;;;;5120230;28;20466;-71
2023/04/21 04:44:03;;;;;;;17.77;8.40;;;10.90;99.90;;;;;;5120730;28;20023;-71
2023/04/21 04:46:32;;;;;;;14.77;8.07;;;10.90;99.90;;;;;;5120172;28;20016;-70
2023/04/21 04:48:59;;;;;;;9.10;8.18;;;10.90;99.90;;;;;;5120413;28;20030;-71
2023/04/21 04:51:25;;;;;;;15.13;8.88;;;10.80;99.90;;;;;;5120295;28;20027;-71
2023/04/21 04:53:51;;;;;;;14.50;8.05;;;10.90;99.90;;;;;;5101842;28;20377;-70
2023/04/21 04:56:16;;;;;;;9.63;8.45;;;10.90;99.90;;;;;;5120135;28;20491;-71
2023/04/21 04:58:45;;;;;;;13.93;8.10;;;10.80;99.90;;;;;;5120272;28;20028;-71
2023/04/21 05:01:15;;;;;;;11.60;8.90;;;10.80;99.90;;;;;;5119910;28;20106;-71
2023/04/21 05:03:41;;;;;;;17.98;8.90;;;10.80;99.90;;;;;;5120259;28;20387;-71
2023/04/21 05:06:08;;;;;;;13.68;8.40;;;10.80;99.90;;;;;;5119015;28;20020;-70
2023/04/21 05:08:34;;;;;;;10.95;8.60;;;10.90;99.90;;;;;;5120088;28;20019;-70
2023/04/21 05:10:59;;;;;;;9.68;7.03;;;10.90;99.90;;;;;;5119743;28;20047;-71
2023/04/21 05:13:25;;;;;;;12.25;8.70;;;10.90;99.90;;;;;;5120124;28;20388;-71
2023/04/21 05:16:01;;;;;;;10.23;8.30;;;10.90;99.90;;;;;;5101499;28;20085;-71
2023/04/21 05:18:27;;;;;;;11.38;8.05;;;11.00;99.90;;;;;;5119960;28;20076;-71
2023/04/21 05:20:52;;;;;;;10.43;7.93;;;11.00;99.90;;;;;;5119512;28;20078;-71
2023/04/21 05:23:19;;;;;;;13.80;8.30;;;11.10;99.90;;;;;;5101502;28;20038;-71
2023/04/21 05:25:44;;;;;;;10.45;7.65;;;11.20;99.90;;;;;;5119258;28;20140;-72
2023/04/21 05:28:10;;;;;;;15.15;7.93;;;11.20;99.90;;;;;;5094964;28;20060;-70
2023/04/21 05:30:36;;;;;;;9.88;8.00;;;11.30;99.90;;;;;;5109717;28;20019;-70
2023/04/21 05:33:01;;;;;;;10.23;7.30;;;11.30;99.90;;;;;;5104616;28;20438;-70
2023/04/21 05:35:30;;;;;;;13.77;7.68;;;11.40;99.90;;;;;;5108604;28;20016;-70
2023/04/21 05:37:55;;;;;;;8.82;7.45;;;11.40;99.90;;;;;;5085418;28;20054;-70
2023/04/21 05:40:21;;;;;;;12.20;7.22;;;11.50;99.90;;;;;;5106849;28;20428;-70
2023/04/21 05:42:47;;;;;;;11.00;6.97;;;11.50;99.90;;;;;;5103112;28;20020;-69
2023/04/21 05:45:12;;;;;;;8.50;7.22;;;11.60;99.90;;;;;;5106795;28;20022;-70
2023/04/21 05:47:38;;;;;;;12.63;7.88;;;11.70;99.90;;;;;;5115521;28;20022;-70
2023/04/21 05:50:05;;;;;;;10.73;6.70;;;11.80;99.90;;;;;;5115827;28;20020;-70
2023/04/21 05:52:31;;;;;;;9.55;6.80;;;11.90;99.90;;;;;;5100202;28;20129;-70
2023/04/21 05:54:58;;;;;;;8.10;6.95;;;12.00;99.90;;;;;;5082238;28;20024;-70
2023/04/21 05:57:24;;;;;;;11.20;7.63;;;12.10;99.90;;;;;;5081256;28;20020;-70
2023/04/21 05:59:49;;;;;;;14.02;6.97;;;12.20;99.90;;;;;;5116737;28;20031;-70
2023/04/21 06:02:15;;;;;;;15.13;7.07;;;12.30;99.90;;;;;;5119248;28;20039;-70
2023/04/21 06:04:41;;;;;;;13.38;7.00;;;12.30;99.90;;;;;;5118643;28;20086;-69
2023/04/21 06:07:08;;;;;;;9.18;6.30;;;12.40;99.90;;;;;;5119192;28;20099;-70
2023/04/21 06:09:35;;;;;;;9.00;6.55;;;12.50;99.90;;;;;;5118542;28;20015;-70
2023/04/21 06:12:01;;;;;;;12.60;6.63;;;12.60;99.90;;;;;;5118738;28;20034;-70
2023/04/21 06:14:27;;;;;;;14.85;6.22;;;12.70;99.90;;;;;;5118558;28;20055;-69
2023/04/21 06:16:53;;;;;;;10.45;6.32;;;12.70;99.90;;;;;;5118904;28;20024;-69
2023/04/21 06:19:19;;;;;;;12.23;6.75;;;12.80;99.90;;;;;;5118248;28;20039;-69
2023/04/21 06:21:44;;;;;;;8.82;5.93;;;12.80;99.90;;;;;;5118624;28;20548;-69
2023/04/21 06:24:10;;;;;;;15.20;6.63;;;13.00;99.90;;;;;;5118195;28;20081;-69
2023/04/21 06:26:36;;;;;;;10.05;5.95;;;13.00;99.90;;;;;;5118048;28;20031;-69
2023/04/21 06:29:01;;;;;;;8.25;5.82;;;13.10;99.90;;;;;;5118357;28;20103;-69
2023/04/21 06:31:27;;;;;;;10.77;6.40;;;13.20;99.90;;;;;;5118478;28;20036;-69
2023/04/21 06:33:53;;;;;;;6.40;5.00;;;13.30;99.90;;;;;;5117973;28;20095;-69
2023/04/21 06:36:20;;;;;;;12.32;5.85;;;13.40;99.90;;;;;;5118663;28;20058;-69
2023/04/21 06:38:46;;;;;;;10.27;6.10;;;13.40;99.90;;;;;;5117943;28;20016;-69
2023/04/21 06:41:11;;;;;;;15.30;6.93;;;13.50;99.90;;;;;;5118289;28;20043;-69
2023/04/21 06:43:37;;;;;;;11.50;6.05;;;13.50;99.90;;;;;;5118077;28;20022;-69
2023/04/21 06:46:03;;;;;;;18.40;7.20;;;13.70;99.90;;;;;;5118142;28;20034;-69
2023/04/21 06:48:29;;;;;;;10.82;5.70;;;13.70;99.90;;;;;;5117889;28;20046;-69
2023/04/21 06:50:54;;;;;;;11.30;5.53;;;13.80;99.90;;;;;;5118138;28;20027;-69
2023/04/21 06:53:20;;;;;;;13.63;6.45;;;13.90;99.90;;;;;;5117910;28;20081;-69
2023/04/21 06:55:46;;;;;;;7.55;5.85;;;13.90;99.90;;;;;;5099500;28;20027;-69
2023/04/21 06:58:12;;;;;;;12.38;5.97;;;14.00;99.90;;;;;;5099346;28;20020;-69
2023/04/21 07:00:38;;;;;;;10.10;5.97;;;14.20;99.90;;;;;;5117935;28;20028;-70
2023/04/21 07:03:04;;;;;;;17.67;6.55;;;14.30;99.90;;;;;;5116724;28;20488;-70
2023/04/21 07:05:29;;;;;;;10.18;4.95;;;14.30;99.90;;;;;;5117666;28;20026;-69
2023/04/21 07:07:58;;;;;;;12.80;6.50;;;14.40;99.90;;;;;;5117582;28;20104;-70
2023/04/21 07:10:25;;;;;;;9.05;4.97;;;14.50;99.90;;;;;;5117449;28;20024;-69
2023/04/21 07:12:51;;;;;;;9.32;5.80;;;14.50;99.90;;;;;;5117795;28;20436;-69
2023/04/21 07:15:17;;;;;;;12.70;6.32;;;14.60;99.90;;;;;;5117816;28;20050;-70
2023/04/21 07:17:43;;;;;;;6.80;5.15;;;14.70;99.90;;;;;;5100617;28;20016;-70
2023/04/21 07:20:09;;;;;;;12.02;5.68;;;14.80;99.90;;;;;;5113789;28;20048;-70
2023/04/21 07:22:35;;;;;;;11.73;6.10;;;14.90;99.90;;;;;;5114664;28;20471;-69
2023/04/21 07:25:07;;;;;;;12.55;5.55;;;15.00;99.90;;;;;;5097103;28;20137;-70
2023/04/21 07:27:35;;;;;;;10.15;5.50;;;15.00;99.90;;;;;;5096584;28;20392;-70
2023/04/21 07:30:02;;;;;;;8.38;5.90;;;15.10;99.90;;;;;;5092703;28;20057;-70
2023/04/21 07:32:27;;;;;;;13.13;6.82;;;15.20;99.90;;;;;;5115214;28;20020;-70
2023/04/21 07:34:53;;;;;;;8.43;5.85;;;15.40;99.90;;;;;;5097307;28;20023;-70
2023/04/21 07:37:20;;;;;;;11.13;6.25;;;15.50;99.90;;;;;;5111595;28;20016;-70
2023/04/21 07:39:46;;;;;;;9.73;5.93;;;15.60;99.90;;;;;;5095169;28;20024;-70
2023/04/21 07:42:12;;;;;;;14.93;6.07;;;15.80;99.90;;;;;;5112553;28;20031;-70
2023/04/21 07:44:38;;;;;;;9.75;5.47;;;15.90;99.90;;;;;;5113139;28;20027;-69
2023/04/21 07:47:04;;;;;;;7.38;5.38;;;16.10;99.90;;;;;;5096816;28;20085;-69
2023/04/21 07:49:30;;;;;;;13.43;5.93;;;16.00;99.90;;;;;;5097276;28;20118;-70
2023/04/21 07:51:56;;;;;;;20.15;6.18;;;16.10;99.90;;;;;;5111798;28;20050;-69
2023/04/21 07:54:21;;;;;;;12.82;5.47;;;16.10;99.90;;;;;;5108857;28;20114;-70
2023/04/21 07:56:47;;;;;;;8.55;5.72;;;16.10;99.90;;;;;;5112030;28;20123;-70
2023/04/21 07:59:12;;;;;;;8.70;5.25;;;16.00;99.90;;;;;;5097495;28;20511;-69
2023/04/21 08:01:39;;;;;;;9.05;5.30;;;16.00;99.90;;;;;;5115410;28;20036;-70
2023/04/21 08:04:05;;;;;;;13.85;5.60;;;16.10;99.90;;;;;;5115544;28;20153;-70
2023/04/21 08:06:32;;;;;;;11.65;5.38;;;16.10;99.90;;;;;;5094148;28;20028;-70
2023/04/21 08:08:58;;;;;;;9.82;5.82;;;16.20;99.90;;;;;;5115377;28;20027;-70
2023/04/21 08:11:23;;;;;;;14.27;5.70;;;16.30;99.90;;;;;;5108691;28;20395;-70
2023/04/21 08:13:49;;;;;;;11.25;5.60;;;16.30;99.90;;;;;;5115833;28;20020;-69
2023/04/21 08:16:15;;;;;;;14.68;6.00;;;16.40;99.90;;;;;;5115506;28;20046;-70
2023/04/21 08:18:40;;;;;;;12.57;5.75;;;16.50;99.90;;;;;;5114812;28;20046;-70
2023/04/21 08:21:07;;;;;;;7.72;5.07;;;16.70;99.90;;;;;;5115464;28;20068;-70
2023/04/21 08:23:32;;;;;;;8.90;5.35;;;16.80;99.90;;;;;;5110087;28;20475;-70
2023/04/21 08:25:58;;;;;;;11.65;5.63;;;16.90;99.90;;;;;;5097126;28;20107;-70
2023/04/21 08:28:24;;;;;;;9.93;5.32;;;17.00;99.90;;;;;;5114747;28;20568;-70
2023/04/21 08:30:49;;;;;;;13.80;5.35;;;17.00;99.90;;;;;;5114958;28;20811;-71
2023/04/21 08:33:15;;;;;;;9.25;5.55;;;17.00;99.90;;;;;;5115093;28;20510;-70
2023/04/21 08:35:41;;;;;;;8.60;5.10;;;17.10;99.90;;;;;;5110000;28;20019;-70
2023/04/21 08:38:07;;;;;;;11.02;5.00;;;17.20;99.90;;;;;;5113051;28;20489;-70
2023/04/21 08:40:36;;;;;;;9.63;5.55;;;17.30;99.90;;;;;;5116297;28;20053;-70
2023/04/21 08:43:06;;;;;;;9.65;5.32;;;17.40;99.90;;;;;;5100811;28;20457;-70
2023/04/21 08:45:33;;;;;;;10.48;5.03;;;17.40;99.90;;;;;;5119218;28;20080;-70
2023/04/21 08:48:00;;;;;;;20.67;6.03;;;17.40;99.90;;;;;;5099720;28;20024;-70
2023/04/21 08:50:30;;;;;;;9.75;4.65;;;17.40;99.90;;;;;;5119192;28;20016;-70
2023/04/21 08:52:56;;;;;;;14.87;6.27;;;17.50;99.90;;;;;;5119094;28;20112;-70
2023/04/21 08:55:27;;;;;;;15.30;5.20;;;17.60;99.90;;;;;;5118962;28;20032;-70
2023/04/21 08:57:53;;;;;;;10.52;4.72;;;17.80;99.90;;;;;;5118051;28;20060;-70
2023/04/21 09:00:19;;;;;;;10.95;5.65;;;17.90;99.90;;;;;;5118789;28;20099;-70
2023/04/21 09:03:01;;;;;;;14.05;5.03;;;17.90;99.90;;;;;;5100434;28;20108;-70
2023/04/21 09:05:32;;;;;;;9.95;5.00;;;18.00;99.90;;;;;;5117515;28;20023;-70
2023/04/21 09:08:08;;;;;;;;;;;18.00;99.90;;;;;;5118126;28;20019;-70
2023/04/21 09:10:45;;;;;;;8.80;4.95;;;17.90;99.90;;;;;;5118359;28;19994;-70
2023/04/21 09:13:11;;;;;;;12.00;4.93;;;18.00;99.90;;;;;;5114311;28;20403;-70
2023/04/21 09:15:41;;;;;;;13.27;5.07;;;18.00;99.90;;;;;;5118183;28;20495;-69
2023/04/21 09:18:14;;;;;;;12.95;5.03;;;18.00;99.90;;;;;;5117530;28;20024;-69
2023/04/21 09:20:42;;;;;;;10.55;4.85;;;18.00;99.90;;;;;;5117777;28;20065;-70
2023/04/21 09:23:09;;;;;;;10.77;5.07;;;18.10;99.90;;;;;;5118186;28;20028;-70
2023/04/21 09:25:38;;;;;;;8.02;5.38;;;18.20;99.90;;;;;;5098667;28;20106;-70
2023/04/21 09:28:10;;;;;;;11.02;5.00;;;18.20;99.90;;;;;;5117160;28;20038;-69
2023/04/21 09:30:37;;;;;;;14.00;5.20;;;18.10;99.90;;;;;;5118105;28;20012;-70
2023/04/21 09:33:03;;;;;;;9.48;5.40;;;18.20;99.90;;;;;;5117533;28;20162;-70
2023/04/21 09:35:36;;;;;;;10.75;5.15;;;18.20;99.90;;;;;;5118007;28;20024;-70
2023/04/21 09:38:03;;;;;;;10.70;6.18;;;18.30;99.90;;;;;;5115623;28;20024;-69
2023/04/21 09:40:29;;;;;;;6.88;4.45;;;18.40;99.90;;;;;;5116013;28;20016;-70
2023/04/21 09:42:55;;;;;;;11.00;4.28;;;18.40;99.90;;;;;;5117892;28;20102;-70
2023/04/21 09:45:26;;;;;;;11.52;5.05;;;18.40;99.90;;;;;;5117824;28;20104;-70
2023/04/21 09:47:55;;;;;;;11.90;5.70;;;18.40;99.90;;;;;;5111733;28;20039;-69
2023/04/21 09:50:22;;;;;;;12.20;5.68;;;18.40;99.90;;;;;;5117483;28;20070;-70
2023/04/21 09:52:50;;;;;;;10.93;4.68;;;18.40;99.90;;;;;;5117477;28;20019;-70
2023/04/21 09:55:17;;;;;;;8.98;4.78;;;18.50;99.90;;;;;;5117297;28;20022;-69
2023/04/21 09:57:47;;;;;;;10.45;5.30;;;18.60;99.90;;;;;;5115495;28;20045;-69
2023/04/21 10:00:13;;;;;;;10.88;5.03;;;18.70;99.90;;;;;;5111485;28;20043;-69
2023/04/21 10:02:47;;;;;;;9.48;5.00;;;18.70;99.90;;;;;;5117310;28;20031;-69
2023/04/21 10:05:13;;;;;;;9.02;4.68;;;18.80;99.90;;;;;;5117441;28;20031;-69
2023/04/21 10:07:39;;;;;;;8.82;5.85;;;18.90;99.90;;;;;;5113351;28;20027;-70
2023/04/21 10:10:20;;;;;;;12.00;4.88;;;18.80;99.90;;;;;;5114333;28;20098;-70
2023/04/21 10:12:46;;;;;;;11.23;5.13;;;18.90;99.90;;;;;;5098121;28;20154;-69
2023/04/21 10:15:36;;;;;;;10.02;6.32;;;18.90;99.90;;;;;;5114612;28;20031;-69
2023/04/21 10:18:13;;;;;;;16.00;5.20;;;19.10;99.90;;;;;;5096653;28;20032;-69
2023/04/21 10:20:52;;;;;;;10.27;5.97;;;19.20;99.90;;;;;;5098397;28;20047;-69
2023/04/21 10:23:43;;;;;;;10.23;4.40;;;19.20;99.90;;;;;;5113204;28;20019;-70
2023/04/21 10:26:19;;;;;;;10.20;5.50;;;19.30;99.90;;;;;;5113191;28;20016;-69
2023/04/21 10:28:44;;;;;;;7.47;4.70;;;19.30;99.90;;;;;;5115219;28;20040;-70
2023/04/21 10:31:22;;;;;;;15.75;4.97;;;19.40;99.90;;;;;;5098141;28;20027;-69
2023/04/21 10:34:09;;;;;;;9.20;4.38;;;19.40;99.90;;;;;;5112827;28;20484;-69
2023/04/21 10:36:47;;;;;;;12.15;4.45;;;19.50;99.90;;;;;;5114679;28;20051;-69
2023/04/21 10:39:26;;;;;;;8.23;4.65;;;19.50;99.90;;;;;;5114023;28;20024;-69
2023/04/21 10:41:56;;;;;;;7.88;3.70;;;19.60;99.90;;;;;;5115103;28;20027;-69
2023/04/21 10:44:23;;;;;;;;;;;19.50;99.90;;;;;;5116731;28;20407;-69
2023/04/21 10:46:51;;;;;;;15.68;4.72;;;19.50;99.90;;;;;;5115167;28;19960;-69
2023/04/21 10:49:19;;;;;;;9.95;4.75;;;19.60;99.90;;;;;;5116376;28;20020;-69
2023/04/21 10:52:06;;;;;;;8.23;4.43;;;19.70;99.90;;;;;;5094638;28;20027;-69
2023/04/21 10:54:46;;;;;;;7.82;4.13;;;19.70;99.90;;;;;;5112003;28;20015;-69
2023/04/21 10:57:16;;;;;;;;;;;19.80;99.90;;;;;;5113246;28;20099;-69
2023/04/21 10:59:43;;;;;;;10.83;4.70;;;19.80;99.90;;;;;;5095288;28;19904;-69
2023/04/21 11:02:14;;;;;;;16.40;4.60;;;19.90;99.90;;;;;;5115373;28;20293;-69
2023/04/21 11:04:46;;;;;;;15.75;4.93;;;19.90;99.90;;;;;;5115880;28;20020;-70
2023/04/21 11:07:15;;;;;;;11.63;3.92;;;20.00;99.90;;;;;;5115417;28;20020;-68
2023/04/21 11:09:42;;;;;;;7.47;3.65;;;20.00;99.90;;;;;;5116113;28;20073;-69
2023/04/21 11:12:13;;;;;;;10.63;4.20;;;19.90;99.90;;;;;;5115863;28;20036;-69
2023/04/21 11:14:40;;;;;;;9.45;4.50;;;20.00;99.90;;;;;;5116569;28;20015;-70
2023/04/21 11:17:17;;;;;;;9.45;4.28;;;20.10;99.90;;;;;;5111621;28;20119;-69
2023/04/21 11:19:50;;;;;;;9.27;3.63;;;20.10;99.90;;;;;;5112043;28;20082;-69
2023/04/21 11:22:17;;;;;;;8.55;3.70;;;20.20;99.90;;;;;;5111844;28;20031;-70
2023/04/21 11:24:45;;;;;;;9.55;3.95;;;20.30;99.90;;;;;;5115933;28;20047;-69
2023/04/21 11:27:11;;;;;;;9.35;3.97;;;20.40;99.90;;;;;;5113571;28;20490;-70
2023/04/21 11:29:37;;;;;;;13.48;4.40;;;20.40;99.90;;;;;;5114277;28;20030;-69
2023/04/21 11:32:05;;;;;;;7.70;3.63;;;20.50;99.90;;;;;;5115393;28;20070;-69
2023/04/21 11:34:31;;;;;;;10.90;4.78;;;20.40;99.90;;;;;;5094866;28;20036;-70
2023/04/21 11:36:57;;;;;;;7.55;3.42;;;20.40;99.90;;;;;;5112557;28;20076;-70
2023/04/21 11:39:22;;;;;;;16.90;4.70;;;20.40;99.90;;;;;;5111540;28;20449;-69
2023/04/21 11:41:50;;;;;;;5.40;3.38;;;20.50;99.90;;;;;;5097081;28;20062;-69
2023/04/21 11:44:37;;;;;;;6.45;3.70;;;20.70;99.90;;;;;;5112322;28;20015;-69
2023/04/21 11:47:19;;;;;;;8.00;4.47;;;20.70;99.90;;;;;;5111870;28;20480;-70
2023/04/21 11:49:53;;;;;;;8.75;3.85;;;20.70;99.90;;;;;;5109735;28;20080;-70
2023/04/21 11:52:36;;;;;;;12.18;4.43;;;20.60;99.90;;;;;;5115752;28;20015;-69
2023/04/21 11:55:02;;;;;;;8.90;4.18;;;20.60;99.90;;;;;;5113906;28;20391;-70
2023/04/21 11:57:31;;;;;;;9.90;4.28;;;20.60;99.90;;;;;;5115203;28;20054;-70
2023/04/21 12:00:01;;;;;;;9.70;3.75;;;20.60;99.90;;;;;;5115283;28;20028;-70
2023/04/21 12:02:29;;;;;;;11.82;3.42;;;20.60;99.90;;;;;;5113359;28;20030;-70
2023/04/21 12:05:08;;;;;;;15.65;4.28;;;20.60;99.90;;;;;;5115837;28;20050;-69
2023/04/21 12:07:36;;;;;;;15.07;3.97;;;20.60;99.90;;;;;;5113521;28;20016;-70
2023/04/21 12:10:08;;;;;;;10.73;4.95;;;20.70;99.90;;;;;;5090767;28;20077;-69
2023/04/21 12:12:40;;;;;;;12.57;4.57;;;20.70;99.90;;;;;;5097081;28;20023;-70
2023/04/21 12:15:07;;;;;;;7.97;3.92;;;20.80;99.90;;;;;;5118368;28;20028;-69
2023/04/21 12:17:43;;;;;;;11.15;3.95;;;20.70;99.90;;;;;;5118253;28;20028;-70
2023/04/21 12:20:09;;;;;;;10.45;4.32;;;20.60;99.90;;;;;;5101226;28;20051;-70
2023/04/21 12:22:34;;;;;;;10.27;3.75;;;20.70;99.90;;;;;;5119722;28;20051;-70
2023/04/21 12:25:00;;;;;;;8.10;3.35;;;20.80;99.90;;;;;;5117827;28;20517;-70
2023/04/21 12:27:27;;;;;;;8.75;4.05;;;20.80;99.90;;;;;;5113276;28;20044;-69
2023/04/21 12:29:53;;;;;;;12.55;4.57;;;20.90;99.90;;;;;;5119708;28;20102;-69
2023/04/21 12:32:19;;;;;;;12.43;4.38;;;21.00;99.90;;;;;;5117580;28;20066;-69
2023/04/21 12:34:44;;;;;;;9.98;3.72;;;20.80;99.90;;;;;;5119763;28;20038;-70
2023/04/21 12:37:10;;;;;;;8.68;4.30;;;20.70;99.90;;;;;;5094932;28;20032;-69
2023/04/21 12:39:36;;;;;;;16.77;3.80;;;20.70;99.90;;;;;;5119155;28;20567;-69
2023/04/21 12:42:01;;;;;;;15.00;4.40;;;20.50;99.90;;;;;;5115909;28;20828;-69